createdAt,value
2023-05-04T00:00:49.036Z,101294.06
2023-05-04T00:01:51.836Z,101287.72
2023-05-04T00:02:54.802Z,101287.09
2023-05-04T00:03:58.381Z,101278.00
2023-05-04T00:05:00.955Z,101283.91
2023-05-04T00:06:03.529Z,101283.09
2023-05-04T00:07:05.860Z,101288.75
2023-05-04T00:08:08.103Z,101291.50
2023-05-04T00:09:15.288Z,101291.72
2023-05-04T00:10:17.854Z,101291.09
2023-05-04T00:11:20.226Z,101280.31
2023-05-04T00:12:22.605Z,101286.88
2023-05-04T00:13:25.244Z,101291.50
2023-05-04T00:14:27.519Z,101291.72
2023-05-04T00:15:30.687Z,101287.50
2023-05-04T00:16:33.203Z,101282.00
2023-05-04T00:17:35.501Z,101283.28
2023-05-04T00:18:37.975Z,101279.69
2023-05-04T00:19:42.404Z,101289.19
2023-05-04T00:20:44.816Z,101282.84
2023-05-04T00:21:47.264Z,101282.22
2023-05-04T00:22:49.571Z,101281.38
2023-05-04T00:23:51.873Z,101275.03
2023-05-04T00:24:54.168Z,101281.78
2023-05-04T00:25:58.968Z,101274.81
2023-05-04T00:27:01.273Z,101283.28
2023-05-04T00:28:04.011Z,101275.03
2023-05-04T00:29:06.372Z,101276.31
2023-05-04T00:30:09.173Z,101271.03
2023-05-04T00:31:11.438Z,101272.91
2023-05-04T00:32:13.868Z,101265.94
2023-05-04T00:33:17.016Z,101274.16
2023-05-04T00:34:19.603Z,101274.38
2023-05-04T00:35:21.844Z,101268.28
2023-05-04T00:36:25.010Z,101274.59
2023-05-04T00:37:27.301Z,101273.94
2023-05-04T00:38:29.721Z,101271.41
2023-05-04T00:39:32.212Z,101276.91
2023-05-04T00:40:35.363Z,101269.09
2023-05-04T00:41:37.841Z,101271.84
2023-05-04T00:42:40.188Z,101264.88
2023-05-04T00:43:42.561Z,101267.63
2023-05-04T00:44:45.365Z,101268.66
2023-05-04T00:45:48.170Z,101265.28
2023-05-04T00:46:53.236Z,101266.34
2023-05-04T00:47:56.205Z,101270.16
2023-05-04T00:48:59.991Z,101268.44
2023-05-04T00:50:03.152Z,101267.81
2023-05-04T00:51:06.876Z,101262.53
2023-05-04T00:52:10.789Z,101264.44
2023-05-04T00:53:13.113Z,101260.22
2023-05-04T00:54:18.233Z,101262.13
2023-05-04T00:55:20.941Z,101264.22
2023-05-04T00:56:24.734Z,101268.88
2023-05-04T00:57:27.101Z,101267.16
2023-05-04T00:58:31.498Z,101271.78
2023-05-04T00:59:33.802Z,101268.44
2023-05-04T01:00:37.288Z,101258.50
2023-05-04T01:01:40.786Z,101259.56
2023-05-04T01:02:43.388Z,101264.19
2023-05-04T01:03:45.853Z,101262.72
2023-05-04T01:04:48.589Z,101266.50
2023-05-04T01:06:08.969Z,101259.53
2023-05-04T01:07:27.093Z,101272.59
2023-05-04T01:08:33.120Z,101262.69
2023-05-04T01:09:39.544Z,101271.97
2023-05-04T01:10:53.705Z,101256.56
2023-05-04T01:12:06.434Z,101267.75
2023-05-04T01:13:13.232Z,101267.09
2023-05-04T01:14:20.339Z,101262.69
2023-05-04T01:15:22.963Z,101270.25
2023-05-04T01:16:25.297Z,101261.38
2023-05-04T01:17:27.694Z,101258.63
2023-05-04T01:18:30.415Z,101260.75
2023-05-04T01:19:33.125Z,101259.91
2023-05-04T01:20:36.022Z,101255.50
2023-05-04T01:21:39.228Z,101256.53
2023-05-04T01:22:41.930Z,101248.53
2023-05-04T01:23:44.276Z,101254.19
2023-05-04T01:24:46.841Z,101262.63
2023-05-04T01:26:16.962Z,101259.03
2023-05-04T01:27:37.858Z,101252.91
2023-05-04T01:28:50.457Z,101255.66
2023-05-04T01:29:58.505Z,101249.75
2023-05-04T01:31:06.269Z,101252.50
2023-05-04T01:32:08.976Z,101257.31
2023-05-04T01:33:12.428Z,101258.16
2023-05-04T01:34:16.726Z,101262.16
2023-05-04T01:35:20.117Z,101260.47
2023-05-04T01:36:23.398Z,101263.22
2023-05-04T01:37:25.915Z,101263.41
2023-05-04T01:38:28.751Z,101262.56
2023-05-04T01:39:31.163Z,101261.09
2023-05-04T01:40:33.793Z,101258.34
2023-05-04T01:41:36.947Z,101263.00
2023-05-04T01:42:39.331Z,101263.16
2023-05-04T01:43:42.157Z,101258.75
2023-05-04T01:44:44.584Z,101256.19
2023-05-04T01:45:47.232Z,101265.28
2023-05-04T01:46:49.564Z,101267.16
2023-05-04T01:47:51.876Z,101262.75
2023-05-04T01:48:54.521Z,101269.06
2023-05-04T01:49:57.955Z,101267.56
2023-05-04T01:51:01.848Z,101267.56
2023-05-04T01:52:04.224Z,101266.53
2023-05-04T01:53:06.546Z,101265.66
2023-05-04T01:54:08.827Z,101264.84
2023-05-04T01:55:11.108Z,101271.34
2023-05-04T01:56:13.425Z,101265.03
2023-05-04T01:57:16.027Z,101266.94
2023-05-04T01:58:21.616Z,101268.81
2023-05-04T01:59:23.904Z,101268.81
2023-05-04T02:00:27.330Z,101270.72
2023-05-04T02:01:29.767Z,101264.38
2023-05-04T02:02:32.224Z,101258.91
2023-05-04T02:03:34.620Z,101262.50
2023-05-04T02:04:37.340Z,101266.28
2023-05-04T02:05:39.638Z,101266.28
2023-05-04T02:06:41.965Z,101262.72
2023-05-04T02:07:45.284Z,101261.84
2023-05-04T02:08:47.952Z,101260.13
2023-05-04T02:09:50.204Z,101264.78
2023-05-04T02:10:52.855Z,101262.88
2023-05-04T02:11:55.382Z,101264.78
2023-05-04T02:12:57.893Z,101263.94
2023-05-04T02:14:01.229Z,101265.00
2023-05-04T02:15:04.079Z,101255.91
2023-05-04T02:16:07.039Z,101263.28
2023-05-04T02:17:09.450Z,101264.34
2023-05-04T02:18:13.770Z,101270.84
2023-05-04T02:19:16.217Z,101279.06
2023-05-04T02:20:18.806Z,101270.22
2023-05-04T02:21:21.748Z,101273.81
2023-05-04T02:22:24.547Z,101273.81
2023-05-04T02:23:28.447Z,101268.53
2023-05-04T02:24:30.843Z,101262.22
2023-05-04T02:25:33.917Z,101268.53
2023-05-04T02:26:39.274Z,101265.13
2023-05-04T02:27:41.543Z,101265.13
2023-05-04T02:28:43.965Z,101263.47
2023-05-04T02:29:46.513Z,101263.47
2023-05-04T02:30:48.814Z,101263.47
2023-05-04T02:31:51.180Z,101259.25
2023-05-04T02:32:53.643Z,101265.53
2023-05-04T02:33:57.888Z,101262.81
2023-05-04T02:35:00.441Z,101262.81
2023-05-04T02:36:04.602Z,101261.75
2023-05-04T02:37:07.592Z,101267.25
2023-05-04T02:38:10.606Z,101259.25
2023-05-04T02:39:15.380Z,101261.09
2023-05-04T02:40:18.095Z,101261.31
2023-05-04T02:41:21.010Z,101264.06
2023-05-04T02:42:23.371Z,101256.69
2023-05-04T02:43:26.076Z,101265.75
2023-05-04T02:44:28.670Z,101265.31
2023-05-04T02:45:31.007Z,101263.41
2023-05-04T02:46:33.280Z,101275.22
2023-05-04T02:47:36.743Z,101269.09
2023-05-04T02:48:39.397Z,101268.25
2023-05-04T02:49:41.709Z,101269.94
2023-05-04T02:50:44.865Z,101269.09
2023-05-04T02:51:47.605Z,101272.91
2023-05-04T02:52:49.867Z,101273.53
2023-05-04T02:53:52.652Z,101272.03
2023-05-04T02:54:55.006Z,101268.47
2023-05-04T02:55:57.355Z,101271.00
2023-05-04T02:56:59.679Z,101272.91
2023-05-04T02:58:01.952Z,101280.25
2023-05-04T02:59:05.471Z,101278.56
2023-05-04T03:00:08.616Z,101274.97
2023-05-04T03:01:10.951Z,101266.75
2023-05-04T03:02:13.225Z,101281.50
2023-05-04T03:03:15.507Z,101274.97
2023-05-04T03:04:17.913Z,101268.00
2023-05-04T03:05:22.787Z,101274.53
2023-05-04T03:06:25.010Z,101264.63
2023-05-04T03:07:28.643Z,101265.47
2023-05-04T03:08:31.229Z,101267.34
2023-05-04T03:09:33.748Z,101264.81
2023-05-04T03:10:37.103Z,101264.81
2023-05-04T03:11:41.767Z,101267.56
2023-05-04T03:12:45.326Z,101264.81
2023-05-04T03:13:48.198Z,101271.16
2023-05-04T03:14:51.007Z,101270.28
2023-05-04T03:15:54.850Z,101268.59
2023-05-04T03:16:57.815Z,101276.81
2023-05-04T03:18:00.327Z,101272.41
2023-05-04T03:19:02.961Z,101273.25
2023-05-04T03:20:06.136Z,101269.66
2023-05-04T03:21:09.012Z,101265.22
2023-05-04T03:22:11.513Z,101265.22
2023-05-04T03:23:14.605Z,101269.00
2023-05-04T03:24:18.270Z,101269.00
2023-05-04T03:25:22.188Z,101269.84
2023-05-04T03:26:25.426Z,101269.00
2023-05-04T03:27:28.426Z,101270.06
2023-05-04T03:28:30.863Z,101266.47
2023-05-04T03:29:33.530Z,101269.22
2023-05-04T03:30:36.482Z,101271.09
2023-05-04T03:31:39.533Z,101263.94
2023-05-04T03:32:42.116Z,101270.47
2023-05-04T03:33:44.479Z,101267.94
2023-05-04T03:34:47.596Z,101260.75
2023-05-04T03:35:51.065Z,101264.53
2023-05-04T03:36:53.940Z,101263.69
2023-05-04T03:37:56.381Z,101265.56
2023-05-04T03:38:59.135Z,101265.78
2023-05-04T03:40:01.879Z,101261.34
2023-05-04T03:41:04.455Z,101262.41
2023-05-04T03:42:06.786Z,101262.41
2023-05-04T03:43:09.146Z,101265.31
2023-05-04T03:44:12.152Z,101269.13
2023-05-04T03:45:14.697Z,101260.91
2023-05-04T03:46:17.184Z,101257.53
2023-05-04T03:47:21.318Z,101259.44
2023-05-04T03:48:23.623Z,101262.34
2023-05-04T03:49:26.441Z,101256.03
2023-05-04T03:50:28.701Z,101259.81
2023-05-04T03:51:31.059Z,101259.81
2023-05-04T03:52:33.341Z,101258.09
2023-05-04T03:53:36.002Z,101258.09
2023-05-04T03:54:38.334Z,101264.66
2023-05-04T03:55:40.630Z,101262.09
2023-05-04T03:56:42.944Z,101256.63
2023-05-04T03:57:46.599Z,101261.25
2023-05-04T03:58:48.989Z,101255.78
2023-05-04T03:59:57.573Z,101261.47
2023-05-04T04:01:02.436Z,101258.53
2023-05-04T04:02:04.774Z,101267.16
2023-05-04T04:03:07.318Z,101264.41
2023-05-04T04:04:10.357Z,101269.88
2023-05-04T04:05:12.638Z,101267.31
2023-05-04T04:06:16.049Z,101266.06
2023-05-04T04:07:18.462Z,101268.19
2023-05-04T04:08:20.920Z,101263.53
2023-05-04T04:09:23.866Z,101259.97
2023-05-04T04:10:27.262Z,101259.97
2023-05-04T04:11:31.134Z,101258.28
2023-05-04T04:12:33.548Z,101261.00
2023-05-04T04:13:37.299Z,101261.22
2023-05-04T04:14:39.556Z,101253.84
2023-05-04T04:15:45.012Z,101258.47
2023-05-04T04:16:47.408Z,101262.03
2023-05-04T04:17:49.975Z,101254.03
2023-05-04T04:18:52.328Z,101264.78
2023-05-04T04:19:54.987Z,101252.16
2023-05-04T04:20:57.291Z,101263.94
2023-05-04T04:22:00.303Z,101263.94
2023-05-04T04:23:04.268Z,101263.94
2023-05-04T04:24:08.052Z,101260.38
2023-05-04T04:25:10.729Z,101261.00
2023-05-04T04:26:13.497Z,101259.31
2023-05-04T04:27:16.035Z,101255.53
2023-05-04T04:28:18.384Z,101256.38
2023-05-04T04:29:20.629Z,101252.38
2023-05-04T04:30:23.143Z,101258.31
2023-05-04T04:31:25.653Z,101262.34
2023-05-04T04:32:31.049Z,101257.72
2023-05-04T04:33:34.878Z,101265.31
2023-05-04T04:34:37.739Z,101264.09
2023-05-04T04:35:43.107Z,101261.78
2023-05-04T04:36:45.534Z,101266.69
2023-05-04T04:37:48.893Z,101266.28
2023-05-04T04:38:51.606Z,101264.81
2023-05-04T04:39:54.089Z,101257.88
2023-05-04T04:40:56.812Z,101265.50
2023-05-04T04:41:59.125Z,101258.59
2023-05-04T04:43:02.037Z,101260.50
2023-05-04T04:44:05.906Z,101265.19
2023-05-04T04:45:10.341Z,101258.06
2023-05-04T04:46:12.833Z,101258.94
2023-05-04T04:47:16.865Z,101256.25
2023-05-04T04:48:21.889Z,101257.97
2023-05-04T04:49:26.231Z,101264.31
2023-05-04T04:50:29.835Z,101266.25
2023-05-04T04:51:32.842Z,101267.97
2023-05-04T04:52:35.151Z,101271.34
2023-05-04T04:53:37.465Z,101262.28
2023-05-04T04:54:39.727Z,101263.16
2023-05-04T04:55:42.221Z,101268.25
2023-05-04T04:56:46.302Z,101259.84
2023-05-04T04:57:48.564Z,101260.66
2023-05-04T04:58:51.198Z,101260.28
2023-05-04T04:59:56.250Z,101262.78
2023-05-04T05:00:58.709Z,101267.84
2023-05-04T05:02:02.059Z,101264.91
2023-05-04T05:03:04.993Z,101263.66
2023-05-04T05:04:07.947Z,101264.06
2023-05-04T05:05:13.621Z,101262.13
2023-05-04T05:06:16.155Z,101260.00
2023-05-04T05:07:18.545Z,101254.28
2023-05-04T05:08:20.843Z,101260.41
2023-05-04T05:09:23.682Z,101264.81
2023-05-04T05:10:26.291Z,101264.63
2023-05-04T05:11:28.570Z,101255.28
2023-05-04T05:12:31.234Z,101270.47
2023-05-04T05:13:33.848Z,101265.59
2023-05-04T05:14:36.387Z,101265.97
2023-05-04T05:15:39.143Z,101265.72
2023-05-04T05:16:41.519Z,101269.91
2023-05-04T05:17:44.718Z,101260.34
2023-05-04T05:18:47.050Z,101263.47
2023-05-04T05:19:50.304Z,101254.47
2023-05-04T05:20:52.623Z,101266.91
2023-05-04T05:21:55.161Z,101250.75
2023-05-04T05:22:57.655Z,101258.50
2023-05-04T05:23:59.897Z,101257.16
2023-05-04T05:25:02.292Z,101257.50
2023-05-04T05:26:04.566Z,101248.72
2023-05-04T05:27:06.810Z,101257.34
2023-05-04T05:28:09.175Z,101243.91
2023-05-04T05:29:11.471Z,101252.47
2023-05-04T05:30:14.103Z,101247.06
2023-05-04T05:31:16.762Z,101251.19
2023-05-04T05:32:19.109Z,101253.44
2023-05-04T05:33:21.381Z,101258.38
2023-05-04T05:34:23.619Z,101259.16
2023-05-04T05:35:26.078Z,101255.25
2023-05-04T05:36:28.518Z,101257.69
2023-05-04T05:37:31.758Z,101249.94
2023-05-04T05:38:34.033Z,101262.09
2023-05-04T05:39:37.315Z,101255.41
2023-05-04T05:40:39.619Z,101255.69
2023-05-04T05:41:42.272Z,101250.44
2023-05-04T05:42:45.275Z,101251.81
2023-05-04T05:43:48.063Z,101250.38
2023-05-04T05:44:51.266Z,101247.06
2023-05-04T05:45:54.666Z,101253.06
2023-05-04T05:46:57.909Z,101253.09
2023-05-04T05:48:00.296Z,101240.59
2023-05-04T05:49:02.574Z,101251.66
2023-05-04T05:50:07.801Z,101246.59
2023-05-04T05:51:12.592Z,101244.06
2023-05-04T05:52:15.015Z,101245.97
2023-05-04T05:53:17.296Z,101245.59
2023-05-04T05:54:21.913Z,101245.00
2023-05-04T05:55:24.207Z,101245.22
2023-05-04T05:56:26.470Z,101252.06
2023-05-04T05:57:29.308Z,101252.53
2023-05-04T05:58:31.671Z,101253.84
2023-05-04T05:59:34.056Z,101247.91
2023-05-04T06:00:36.699Z,101258.09
2023-05-04T06:01:38.974Z,101250.81
2023-05-04T06:02:41.346Z,101251.00
2023-05-04T06:03:43.742Z,101248.94
2023-05-04T06:04:46.252Z,101244.66
2023-05-04T06:05:48.564Z,101250.59
2023-05-04T06:06:51.603Z,101245.50
2023-05-04T06:07:53.891Z,101245.66
2023-05-04T06:08:56.175Z,101239.69
2023-05-04T06:09:58.552Z,101242.91
2023-05-04T06:11:00.870Z,101239.97
2023-05-04T06:12:05.067Z,101237.63
2023-05-04T06:13:07.375Z,101234.13
2023-05-04T06:14:09.717Z,101233.47
2023-05-04T06:15:13.823Z,101233.00
2023-05-04T06:16:16.390Z,101228.69
2023-05-04T06:17:19.347Z,101234.63
2023-05-04T06:18:22.110Z,101233.09
2023-05-04T06:19:24.966Z,101225.41
2023-05-04T06:20:27.427Z,101236.06
2023-05-04T06:21:29.774Z,101235.34
2023-05-04T06:22:32.073Z,101239.84
2023-05-04T06:23:34.679Z,101236.66
2023-05-04T06:24:37.915Z,101234.50
2023-05-04T06:25:42.046Z,101235.69
2023-05-04T06:26:44.343Z,101234.13
2023-05-04T06:27:46.888Z,101230.88
2023-05-04T06:28:49.127Z,101224.84
2023-05-04T06:29:52.163Z,101229.91
2023-05-04T06:30:54.400Z,101229.44
2023-05-04T06:31:56.922Z,101223.38
2023-05-04T06:32:59.577Z,101224.56
2023-05-04T06:34:02.324Z,101225.50
2023-05-04T06:35:06.403Z,101225.31
2023-05-04T06:36:08.814Z,101218.66
2023-05-04T06:37:13.995Z,101222.88
2023-05-04T06:38:17.434Z,101218.75
2023-05-04T06:39:20.931Z,101220.47
2023-05-04T06:40:23.261Z,101222.75
2023-05-04T06:41:25.783Z,101220.00
2023-05-04T06:42:31.962Z,101221.16
2023-05-04T06:43:34.466Z,101226.22
2023-05-04T06:44:38.135Z,101218.16
2023-05-04T06:45:40.477Z,101224.63
2023-05-04T06:46:42.885Z,101224.91
2023-05-04T06:47:45.152Z,101220.53
2023-05-04T06:48:47.546Z,101220.81
2023-05-04T06:49:50.663Z,101224.47
2023-05-04T06:50:53.699Z,101218.34
2023-05-04T06:51:56.534Z,101217.78
2023-05-04T06:53:18.674Z,101218.34
2023-05-04T06:54:20.963Z,101214.72
2023-05-04T06:55:23.216Z,101218.38
2023-05-04T06:56:25.475Z,101210.25
2023-05-04T06:57:29.624Z,101216.97
2023-05-04T06:58:33.366Z,101213.34
2023-05-04T06:59:35.650Z,101213.31
2023-05-04T07:00:39.271Z,101218.59
2023-05-04T07:01:41.735Z,101214.66
2023-05-04T07:02:44.217Z,101215.72
2023-05-04T07:03:46.584Z,101219.03
2023-05-04T07:04:50.185Z,101208.94
2023-05-04T07:05:52.525Z,101208.88
2023-05-04T07:06:55.297Z,101212.78
2023-05-04T07:07:59.212Z,101218.31
2023-05-04T07:09:01.716Z,101214.94
2023-05-04T07:10:04.700Z,101210.41
2023-05-04T07:11:07.447Z,101209.47
2023-05-04T07:12:10.727Z,101208.59
2023-05-04T07:13:14.801Z,101201.25
2023-05-04T07:14:18.513Z,101203.09
2023-05-04T07:15:21.160Z,101202.50
2023-05-04T07:16:23.470Z,101196.00
2023-05-04T07:17:26.107Z,101202.63
2023-05-04T07:18:28.389Z,101196.91
2023-05-04T07:19:30.685Z,101201.91
2023-05-04T07:20:33.204Z,101197.63
2023-05-04T07:21:35.668Z,101194.47
2023-05-04T07:22:38.251Z,101191.00
2023-05-04T07:23:40.542Z,101195.66
2023-05-04T07:24:42.816Z,101186.28
2023-05-04T07:25:45.158Z,101195.22
2023-05-04T07:26:47.435Z,101187.25
2023-05-04T07:27:51.548Z,101182.97
2023-05-04T07:28:54.050Z,101188.75
2023-05-04T07:29:56.800Z,101188.38
2023-05-04T07:31:00.810Z,101188.22
2023-05-04T07:32:03.331Z,101187.84
2023-05-04T07:33:05.655Z,101181.03
2023-05-04T07:34:08.028Z,101178.44
2023-05-04T07:35:10.914Z,101173.91
2023-05-04T07:36:13.292Z,101169.38
2023-05-04T07:37:16.186Z,101179.66
2023-05-04T07:38:18.603Z,101174.56
2023-05-04T07:39:21.334Z,101177.34
2023-05-04T07:40:23.730Z,101177.25
2023-05-04T07:41:26.592Z,101179.44
2023-05-04T07:42:29.217Z,101172.69
2023-05-04T07:43:31.690Z,101167.31
2023-05-04T07:44:34.155Z,101164.19
2023-05-04T07:45:36.706Z,101175.66
2023-05-04T07:46:39.301Z,101168.59
2023-05-04T07:47:41.636Z,101167.97
2023-05-04T07:48:43.997Z,101169.31
2023-05-04T07:49:46.566Z,101172.34
2023-05-04T07:50:49.230Z,101172.59
2023-05-04T07:51:51.626Z,101171.94
2023-05-04T07:52:53.919Z,101179.75
2023-05-04T07:53:56.809Z,101172.41
2023-05-04T07:54:59.208Z,101168.66
2023-05-04T07:56:08.719Z,101172.50
2023-05-04T07:57:11.188Z,101168.25
2023-05-04T07:58:15.385Z,101175.75
2023-05-04T07:59:19.013Z,101161.41
2023-05-04T08:00:21.684Z,101170.88
2023-05-04T08:01:24.890Z,101173.91
2023-05-04T08:02:27.329Z,101162.91
2023-05-04T08:03:30.943Z,101166.75
2023-05-04T08:04:33.259Z,101154.91
2023-05-04T08:05:35.744Z,101169.16
2023-05-04T08:06:42.360Z,101158.75
2023-05-04T08:07:45.142Z,101151.69
2023-05-04T08:08:51.487Z,101158.97
2023-05-04T08:09:57.065Z,101153.88
2023-05-04T08:11:12.007Z,101162.81
2023-05-04T08:12:21.405Z,101157.72
2023-05-04T08:13:25.868Z,101159.41
2023-05-04T08:14:28.441Z,101159.06
2023-05-04T08:15:30.902Z,101152.00
2023-05-04T08:16:33.378Z,101155.31
2023-05-04T08:17:38.265Z,101159.47
2023-05-04T08:18:40.662Z,101157.53
2023-05-04T08:19:43.046Z,101149.59
2023-05-04T08:20:55.090Z,101149.00
2023-05-04T08:21:57.464Z,101148.66
2023-05-04T08:23:00.248Z,101147.22
2023-05-04T08:24:02.960Z,101148.25
2023-05-04T08:25:05.929Z,101150.41
2023-05-04T08:26:08.646Z,101147.81
2023-05-04T08:27:14.511Z,101147.50
2023-05-04T08:28:16.996Z,101148.03
2023-05-04T08:29:19.280Z,101143.44
2023-05-04T08:30:21.785Z,101141.34
2023-05-04T08:31:24.107Z,101144.56
2023-05-04T08:32:27.203Z,101151.00
2023-05-04T08:33:29.606Z,101137.19
2023-05-04T08:34:31.914Z,101140.19
2023-05-04T08:35:34.213Z,101144.03
2023-05-04T08:36:36.776Z,101146.72
2023-05-04T08:37:39.127Z,101128.91
2023-05-04T08:38:41.852Z,101130.75
2023-05-04T08:39:44.674Z,101141.88
2023-05-04T08:40:48.702Z,101143.75
2023-05-04T08:41:52.829Z,101136.34
2023-05-04T08:42:55.403Z,101125.28
2023-05-04T08:44:00.308Z,101132.75
2023-05-04T08:45:02.835Z,101139.94
2023-05-04T08:46:06.988Z,101126.06
2023-05-04T08:47:09.452Z,101138.97
2023-05-04T08:48:11.832Z,101138.31
2023-05-04T08:49:14.232Z,101125.72
2023-05-04T08:50:16.496Z,101131.88
2023-05-04T08:51:19.363Z,101137.81
2023-05-04T08:52:25.737Z,101126.56
2023-05-04T08:53:29.338Z,101129.88
2023-05-04T08:54:32.179Z,101134.69
2023-05-04T08:55:37.863Z,101124.91
2023-05-04T08:56:40.824Z,101126.06
2023-05-04T08:57:44.328Z,101135.00
2023-05-04T08:58:51.590Z,101127.72
2023-05-04T08:59:55.615Z,101127.72
2023-05-04T09:00:59.609Z,101129.38
2023-05-04T09:02:02.902Z,101129.38
2023-05-04T09:03:07.906Z,101126.88
2023-05-04T09:04:11.080Z,101128.53
2023-05-04T09:05:13.795Z,101124.59
2023-05-04T09:06:16.178Z,101118.44
2023-05-04T09:07:22.407Z,101117.28
2023-05-04T09:08:24.873Z,101120.94
2023-05-04T09:09:29.345Z,101114.81
2023-05-04T09:10:31.746Z,101120.44
2023-05-04T09:11:34.252Z,101130.00
2023-05-04T09:12:38.182Z,101123.25
2023-05-04T09:13:42.896Z,101126.06
2023-05-04T09:14:46.959Z,101117.63
2023-05-04T09:15:56.145Z,101131.16
2023-05-04T09:16:58.751Z,101121.06
2023-05-04T09:18:05.720Z,101126.69
2023-05-04T09:19:18.946Z,101124.72
2023-05-04T09:20:21.680Z,101128.16
2023-05-04T09:21:31.175Z,101117.75
2023-05-04T09:22:33.883Z,101123.38
2023-05-04T09:23:51.673Z,101119.41
2023-05-04T09:24:54.765Z,101124.50
2023-05-04T09:25:57.073Z,101117.22
2023-05-04T09:27:10.142Z,101122.53
2023-05-04T09:28:13.896Z,101124.84
2023-05-04T09:29:16.299Z,101120.56
2023-05-04T09:30:22.148Z,101116.91
2023-05-04T09:31:25.294Z,101121.06
2023-05-04T09:32:28.838Z,101121.91
2023-05-04T09:33:32.277Z,101118.75
2023-05-04T09:34:34.743Z,101116.78
2023-05-04T09:35:40.859Z,101115.94
2023-05-04T09:36:43.361Z,101112.00
2023-05-04T09:37:49.074Z,101122.59
2023-05-04T09:38:51.429Z,101115.50
2023-05-04T09:40:00.353Z,101118.50
2023-05-04T09:41:02.688Z,101117.03
2023-05-04T09:42:05.193Z,101104.34
2023-05-04T09:43:08.701Z,101112.78
2023-05-04T09:44:25.943Z,101109.31
2023-05-04T09:45:40.412Z,101114.59
2023-05-04T09:46:43.049Z,101106.16
2023-05-04T09:47:46.073Z,101106.16
2023-05-04T09:48:58.127Z,101117.63
2023-05-04T09:50:19.867Z,101113.13
2023-05-04T09:51:27.817Z,101109.84
2023-05-04T09:52:33.093Z,101102.53
2023-05-04T09:53:40.788Z,101103.19
2023-05-04T09:54:45.876Z,101100.16
2023-05-04T09:56:02.642Z,101098.81
2023-05-04T09:57:13.295Z,101095.81
2023-05-04T09:58:16.969Z,101096.13
2023-05-04T09:59:22.017Z,101096.94
2023-05-04T10:00:24.562Z,101102.56
2023-05-04T10:01:30.234Z,101093.31
2023-05-04T10:02:32.806Z,101091.66
2023-05-04T10:03:36.787Z,101090.19
2023-05-04T10:04:39.754Z,101081.41
2023-05-04T10:05:42.737Z,101078.78
2023-05-04T10:06:46.091Z,101076.31
2023-05-04T10:07:48.676Z,101075.78
2023-05-04T10:08:52.101Z,101077.44
2023-05-04T10:09:56.347Z,101075.16
2023-05-04T10:10:58.925Z,101075.47
2023-05-04T10:12:03.819Z,101072.47
2023-05-04T10:13:06.772Z,101072.47
2023-05-04T10:14:09.605Z,101072.47
2023-05-04T10:15:12.752Z,101076.44
2023-05-04T10:16:26.749Z,101061.22
2023-05-04T10:17:44.203Z,101072.16
2023-05-04T10:19:10.117Z,101069.00
2023-05-04T10:20:23.437Z,101067.88
2023-05-04T10:21:47.570Z,101071.50
2023-05-04T10:23:28.827Z,101080.28
2023-05-04T10:24:57.888Z,101061.72
2023-05-04T10:26:22.964Z,101057.25
2023-05-04T10:27:45.713Z,101057.25
2023-05-04T10:28:57.351Z,101057.25
2023-05-04T10:30:01.750Z,101054.13
2023-05-04T10:31:06.429Z,101054.44
2023-05-04T10:32:22.429Z,101042.56
2023-05-04T10:33:26.487Z,101044.50
2023-05-04T10:34:34.493Z,101043.03
2023-05-04T10:35:38.502Z,101039.06
2023-05-04T10:36:42.512Z,101053.69
2023-05-04T10:37:54.718Z,101035.13
2023-05-04T10:38:57.134Z,101039.06
2023-05-04T10:39:59.543Z,101032.13
2023-05-04T10:41:13.236Z,101037.25
2023-05-04T10:42:15.626Z,101029.13
2023-05-04T10:43:24.731Z,101033.59
2023-05-04T10:44:29.338Z,101020.00
2023-05-04T10:45:36.829Z,101023.47
2023-05-04T10:46:39.170Z,101019.31
2023-05-04T10:47:41.812Z,101020.47
2023-05-04T10:48:44.223Z,101014.31
2023-05-04T10:49:46.961Z,101012.16
2023-05-04T10:50:51.132Z,101016.13
2023-05-04T10:52:16.417Z,101013.97
2023-05-04T10:53:19.062Z,101002.19
2023-05-04T10:54:21.435Z,101006.19
2023-05-04T10:55:26.248Z,101011.81
2023-05-04T10:56:28.907Z,100998.38
2023-05-04T10:57:34.596Z,101007.94
2023-05-04T10:58:36.920Z,101010.25
2023-05-04T10:59:40.681Z,101013.69
2023-05-04T11:00:46.305Z,101014.03
2023-05-04T11:01:49.036Z,101012.19
2023-05-04T11:03:03.031Z,101003.25
2023-05-04T11:04:06.750Z,101010.66
2023-05-04T11:05:09.770Z,100996.09
2023-05-04T11:06:25.335Z,101009.66
2023-05-04T11:07:40.040Z,101004.34
2023-05-04T11:08:43.539Z,101011.13
2023-05-04T11:09:46.177Z,101004.16
2023-05-04T11:11:01.473Z,101000.00
2023-05-04T11:12:04.205Z,100986.28
2023-05-04T11:13:14.766Z,100994.72
2023-05-04T11:14:27.981Z,100990.72
2023-05-04T11:15:31.982Z,100990.72
2023-05-04T11:16:34.358Z,100991.03
2023-05-04T11:17:50.102Z,100994.72
2023-05-04T11:18:53.824Z,100990.56
2023-05-04T11:19:56.357Z,100988.56
2023-05-04T11:20:59.007Z,100982.94
2023-05-04T11:22:04.709Z,100983.56
2023-05-04T11:23:10.584Z,100983.84
2023-05-04T11:24:13.841Z,100985.16
2023-05-04T11:25:17.344Z,100974.25
2023-05-04T11:26:20.309Z,100975.38
2023-05-04T11:27:29.287Z,100972.38
2023-05-04T11:28:36.861Z,100974.38
2023-05-04T11:29:39.162Z,100972.69
2023-05-04T11:30:42.501Z,100969.38
2023-05-04T11:31:54.354Z,100968.03
2023-05-04T11:32:57.683Z,100971.16
2023-05-04T11:34:01.508Z,100959.72
2023-05-04T11:35:05.840Z,100968.16
2023-05-04T11:36:09.232Z,100965.66
2023-05-04T11:37:13.706Z,100960.38
2023-05-04T11:38:22.019Z,100955.41
2023-05-04T11:39:25.700Z,100959.03
2023-05-04T11:40:28.120Z,100954.53
2023-05-04T11:41:30.386Z,100958.00
2023-05-04T11:42:32.947Z,100956.34
2023-05-04T11:43:38.279Z,100957.16
2023-05-04T11:44:41.031Z,100954.66
2023-05-04T11:45:44.129Z,100955.53
2023-05-04T11:46:48.093Z,100942.09
2023-05-04T11:47:52.564Z,100948.56
2023-05-04T11:48:55.012Z,100953.31
2023-05-04T11:49:57.358Z,100947.50
2023-05-04T11:50:59.886Z,100948.69
2023-05-04T11:52:09.762Z,100949.81
2023-05-04T11:53:13.788Z,100949.63
2023-05-04T11:54:26.673Z,100950.44
2023-05-04T11:55:30.770Z,100946.81
2023-05-04T11:56:41.601Z,100957.50
2023-05-04T11:57:43.889Z,100944.97
2023-05-04T11:58:46.430Z,100932.06
2023-05-04T11:59:49.518Z,100939.16
2023-05-04T12:00:58.087Z,100935.50
2023-05-04T12:02:00.462Z,100938.31
2023-05-04T12:03:03.346Z,100934.69
2023-05-04T12:04:06.033Z,100940.28
2023-05-04T12:05:15.318Z,100934.69
2023-05-04T12:06:17.728Z,100934.69
2023-05-04T12:07:20.118Z,100929.88
2023-05-04T12:08:26.505Z,100932.69
2023-05-04T12:09:29.184Z,100934.69
2023-05-04T12:10:33.694Z,100937.47
2023-05-04T12:11:38.598Z,100923.78